Time;durP1;ratioP1;P1;durP2;ratioP2;P2;SDS_P1;SDS_P2;PMS_P1;PMS_P2;Temp;Humidity;BMP_temperature;BMP_pressure;BME280_temperature;BME280_humidity;BME280_pressure;Samples;Min_cycle;Max_cycle;Signal;HPM_P1;HPM_P2
2021/12/28 00:01:02;;;;;;;13.07;9.77;;;4.20;99.90;;;;;;4837397;29;20128;-82
2021/12/28 00:03:28;;;;;;;11.95;9.18;;;4.20;99.90;;;;;;4839874;29;20582;-81
2021/12/28 00:05:54;;;;;;;13.35;9.85;;;4.00;99.90;;;;;;4818595;29;20060;-80
2021/12/28 00:08:20;;;;;;;12.80;9.48;;;4.10;99.90;;;;;;4864493;29;20492;-81
2021/12/28 00:10:47;;;;;;;12.57;10.35;;;4.20;99.90;;;;;;4846622;29;20046;-81
2021/12/28 00:13:15;;;;;;;12.45;10.02;;;4.10;99.90;;;;;;4852481;29;20053;-81
2021/12/28 00:16:00;;;;;;;12.93;9.75;;;4.20;99.90;;;;;;4814841;29;20433;-81
2021/12/28 00:18:26;;;;;;;12.32;9.30;;;4.10;99.90;;;;;;4821778;29;20093;-80
2021/12/28 00:20:56;;;;;;;12.90;8.82;;;4.20;99.90;;;;;;4819384;29;20446;-81
2021/12/28 00:23:25;;;;;;;13.43;9.77;;;4.20;99.90;;;;;;4841816;29;20038;-81
2021/12/28 00:25:53;;;;;;;11.38;9.13;;;4.10;99.90;;;;;;4820179;29;20054;-81
2021/12/28 00:28:20;;;;;;;12.40;9.15;;;4.10;99.90;;;;;;4822269;29;20042;-81
2021/12/28 00:30:47;;;;;;;10.73;8.55;;;4.30;99.90;;;;;;4841963;29;20072;-81
2021/12/28 00:33:14;;;;;;;10.57;8.20;;;4.20;99.90;;;;;;4819630;29;20046;-80
2021/12/28 00:35:41;;;;;;;10.90;8.10;;;4.30;99.90;;;;;;4842149;29;20049;-81
2021/12/28 00:38:09;;;;;;;11.52;7.95;;;4.10;99.90;;;;;;4831338;29;20058;-81
2021/12/28 00:40:37;;;;;;;11.00;8.48;;;4.20;99.90;;;;;;4854204;29;20875;-78
2021/12/28 00:43:03;;;;;;;13.07;9.57;;;4.20;99.90;;;;;;4836577;29;20041;-78
2021/12/28 00:45:29;;;;;;;10.25;8.02;;;4.30;99.90;;;;;;4836970;29;20137;-78
2021/12/28 00:47:55;;;;;;;;;;;4.30;99.90;;;;;;4826457;29;20134;-78
2021/12/28 00:50:22;;;;;;;10.70;9.02;;;4.30;99.90;;;;;;4836004;29;19999;-77
2021/12/28 00:52:48;;;;;;;12.40;9.35;;;4.20;99.90;;;;;;4845667;29;20092;-77
2021/12/28 00:55:15;;;;;;;12.13;10.00;;;4.20;99.90;;;;;;4827896;29;20085;-78
2021/12/28 00:57:42;;;;;;;10.95;9.25;;;4.40;99.90;;;;;;4841356;29;20053;-78
2021/12/28 01:00:12;;;;;;;11.18;9.32;;;4.30;99.90;;;;;;4850693;29;20041;-78
2021/12/28 01:02:38;;;;;;;11.15;8.70;;;4.40;99.90;;;;;;4825264;29;20053;-78
2021/12/28 01:05:05;;;;;;;11.38;8.73;;;4.30;99.90;;;;;;4842861;29;20128;-78
2021/12/28 01:07:31;;;;;;;11.80;9.68;;;4.40;99.90;;;;;;4856897;29;20046;-78
2021/12/28 01:09:56;;;;;;;12.60;10.05;;;4.40;99.90;;;;;;4825020;29;20153;-78
2021/12/28 01:12:22;;;;;;;10.60;8.82;;;4.50;99.90;;;;;;4831889;29;20084;-78
2021/12/28 01:14:48;;;;;;;12.32;9.90;;;4.60;99.90;;;;;;4820305;29;20741;-78
2021/12/28 01:17:14;;;;;;;11.93;10.15;;;4.60;99.90;;;;;;4859767;29;20141;-78
2021/12/28 01:19:40;;;;;;;13.18;10.20;;;4.60;99.90;;;;;;4842152;29;20050;-78
2021/12/28 01:22:06;;;;;;;11.73;9.65;;;4.40;99.90;;;;;;4827803;29;20075;-78
2021/12/28 01:24:32;;;;;;;12.80;10.32;;;4.50;99.90;;;;;;4844779;29;20045;-78
2021/12/28 01:26:58;;;;;;;12.65;10.15;;;4.60;99.90;;;;;;4833635;29;20054;-78
2021/12/28 01:29:25;;;;;;;14.68;11.20;;;4.50;99.90;;;;;;4821694;29;20456;-78
2021/12/28 01:31:51;;;;;;;11.85;9.25;;;4.60;99.90;;;;;;4813467;29;20129;-79
2021/12/28 01:34:18;;;;;;;13.35;9.93;;;4.60;99.90;;;;;;4827036;29;20046;-78
2021/12/28 01:36:44;;;;;;;12.45;9.77;;;4.70;99.90;;;;;;4839251;29;20052;-78
2021/12/28 01:39:10;;;;;;;14.15;10.25;;;4.60;99.90;;;;;;4829095;29;20045;-78
2021/12/28 01:41:36;;;;;;;10.93;8.35;;;4.70;99.90;;;;;;4831996;29;20594;-78
2021/12/28 01:44:06;;;;;;;12.32;9.50;;;4.60;99.90;;;;;;4840505;29;20148;-78
2021/12/28 01:46:34;;;;;;;15.50;12.75;;;4.60;99.90;;;;;;4822439;29;20053;-78
2021/12/28 01:49:00;;;;;;;14.10;10.48;;;4.60;99.90;;;;;;4811199;29;20046;-78
2021/12/28 01:51:27;;;;;;;11.60;9.35;;;4.60;99.90;;;;;;4859392;29;20128;-78
2021/12/28 01:53:56;;;;;;;12.10;9.38;;;4.80;99.90;;;;;;4833844;29;20105;-79
2021/12/28 01:56:50;;;;;;;17.17;13.15;;;4.80;99.90;;;;;;4844286;29;20048;-78
2021/12/28 01:59:19;;;;;;;13.10;10.07;;;4.90;99.90;;;;;;4841173;29;20085;-79
2021/12/28 02:01:45;;;;;;;17.50;12.80;;;4.90;99.90;;;;;;4848566;29;20056;-78
2021/12/28 02:04:17;;;;;;;15.05;11.35;;;4.80;99.90;;;;;;4843698;29;20171;-78
2021/12/28 02:06:43;;;;;;;17.83;13.65;;;4.80;99.90;;;;;;4842893;29;20120;-79
2021/12/28 02:09:09;;;;;;;15.63;12.60;;;5.00;99.90;;;;;;4835144;29;20491;-78
2021/12/28 02:11:36;;;;;;;15.82;12.40;;;5.10;99.90;;;;;;4835325;29;20045;-79
2021/12/28 02:14:05;;;;;;;14.60;12.30;;;5.00;99.90;;;;;;4843124;29;20124;-78
2021/12/28 02:16:31;;;;;;;19.58;14.70;;;5.10;99.90;;;;;;4839723;29;20132;-78
2021/12/28 02:18:56;;;;;;;17.63;14.35;;;5.10;99.90;;;;;;4814924;29;20140;-78
2021/12/28 02:21:22;;;;;;;18.77;14.60;;;5.00;99.90;;;;;;4832620;29;20068;-78
2021/12/28 02:23:48;;;;;;;17.35;13.52;;;5.30;99.90;;;;;;4827561;29;20772;-78
2021/12/28 02:26:13;;;;;;;19.17;14.40;;;5.20;99.90;;;;;;4843286;29;20048;-79
2021/12/28 02:28:39;;;;;;;18.98;14.75;;;5.30;99.90;;;;;;4813806;29;20060;-79
2021/12/28 02:31:05;;;;;;;19.52;15.40;;;5.20;99.90;;;;;;4841586;29;20060;-79
2021/12/28 02:33:31;;;;;;;21.83;15.95;;;5.20;99.90;;;;;;4829615;29;20096;-79
2021/12/28 02:36:00;;;;;;;20.05;15.18;;;5.20;99.90;;;;;;4827024;29;20049;-82
2021/12/28 02:38:26;;;;;;;18.30;14.48;;;5.30;99.90;;;;;;4830100;29;20060;-82
2021/12/28 02:40:52;;;;;;;17.75;14.18;;;5.30;99.90;;;;;;4844625;29;20446;-82
2021/12/28 02:43:19;;;;;;;16.98;13.05;;;5.40;99.90;;;;;;4839875;29;20141;-82
2021/12/28 02:45:52;;;;;;;13.77;11.50;;;5.30;99.90;;;;;;4829510;29;20042;-82
2021/12/28 02:48:19;;;;;;;19.50;15.82;;;5.30;99.90;;;;;;4827073;29;20046;-82
2021/12/28 02:50:48;;;;;;;20.85;15.95;;;5.30;99.90;;;;;;4837998;29;20060;-83
2021/12/28 02:53:16;;;;;;;22.55;16.92;;;5.50;99.90;;;;;;4861298;29;20495;-83
2021/12/28 02:55:42;;;;;;;20.98;16.95;;;5.40;99.90;;;;;;4838993;29;20060;-83
2021/12/28 02:58:32;;;;;;;25.83;17.85;;;5.50;99.90;;;;;;4844511;29;20049;-83
2021/12/28 03:01:13;;;;;;;16.08;13.20;;;5.50;99.90;;;;;;4816178;29;20054;-82
2021/12/28 03:03:41;;;;;;;20.23;16.27;;;5.60;99.90;;;;;;4829260;29;20073;-82
2021/12/28 03:06:11;;;;;;;22.10;16.80;;;5.50;99.90;;;;;;4844036;29;20136;-82
2021/12/28 03:08:40;;;;;;;20.65;15.43;;;5.70;99.90;;;;;;4861166;29;20037;-82
2021/12/28 03:11:07;;;;;;;19.77;15.75;;;5.50;99.90;;;;;;4836655;29;20050;-82
2021/12/28 03:13:35;;;;;;;;;;;5.60;99.90;;;;;;4843752;29;20900;-82
2021/12/28 03:16:00;;;;;;;;;;;5.70;99.90;;;;;;4823392;29;19943;-83
2021/12/28 03:18:26;;;;;;;17.10;13.10;;;5.60;99.90;;;;;;4841625;29;19924;-82
2021/12/28 03:20:52;;;;;;;18.15;14.18;;;5.70;99.90;;;;;;4860672;29;20516;-83
2021/12/28 03:23:21;;;;;;;20.88;16.63;;;5.70;99.90;;;;;;4843224;29;20056;-82
2021/12/28 03:25:47;;;;;;;23.05;17.67;;;5.60;99.90;;;;;;4826460;29;20062;-82
2021/12/28 03:28:23;;;;;;;19.20;14.80;;;5.60;99.90;;;;;;4826355;29;20380;-83
2021/12/28 03:30:50;;;;;;;18.63;14.10;;;5.70;99.90;;;;;;4838471;29;20171;-82
2021/12/28 03:33:15;;;;;;;18.33;14.02;;;5.60;99.90;;;;;;4844911;29;20500;-83
2021/12/28 03:35:41;;;;;;;18.85;14.65;;;5.60;99.90;;;;;;4862690;29;20056;-83
2021/12/28 03:38:07;;;;;;;21.55;16.70;;;5.80;99.90;;;;;;4847161;29;20045;-83
2021/12/28 03:40:33;;;;;;;21.98;17.38;;;5.70;99.90;;;;;;4868803;29;20049;-78
2021/12/28 03:42:59;;;;;;;21.80;16.45;;;5.90;99.90;;;;;;4840268;29;20038;-78
2021/12/28 03:45:25;;;;;;;19.50;15.70;;;5.90;99.90;;;;;;4846144;29;20072;-78
2021/12/28 03:47:51;;;;;;;18.90;13.88;;;5.70;99.90;;;;;;4824879;29;20066;-78
2021/12/28 03:50:19;;;;;;;16.13;12.38;;;5.80;99.90;;;;;;4838495;29;20156;-78
2021/12/28 03:52:46;;;;;;;16.08;12.88;;;5.90;99.90;;;;;;4855209;29;20114;-78
2021/12/28 03:55:12;;;;;;;19.33;15.32;;;5.90;99.90;;;;;;4857608;29;20132;-78
2021/12/28 03:57:39;;;;;;;22.23;16.48;;;5.80;99.90;;;;;;4827257;29;20140;-77
2021/12/28 04:00:10;;;;;;;22.02;17.33;;;5.80;99.90;;;;;;4853628;29;20419;-78
2021/12/28 04:02:36;;;;;;;19.35;15.00;;;5.80;99.90;;;;;;4834513;29;20451;-77
2021/12/28 04:05:01;;;;;;;18.45;13.70;;;6.00;99.90;;;;;;4824254;29;20037;-77
2021/12/28 04:07:27;;;;;;;20.85;14.93;;;5.90;99.90;;;;;;4808581;29;20108;-81
2021/12/28 04:12:20;;;;;;;19.75;14.75;;;5.80;99.90;;;;;;4832903;29;20046;-82
2021/12/28 04:14:45;;;;;;;18.42;14.00;;;5.90;99.90;;;;;;4858619;29;20049;-81
2021/12/28 04:17:12;;;;;;;18.33;13.60;;;5.90;99.90;;;;;;4858829;29;20487;-81
2021/12/28 04:19:38;;;;;;;19.50;14.00;;;5.80;99.90;;;;;;4860294;29;20458;-82
2021/12/28 04:22:04;;;;;;;16.98;12.55;;;5.80;99.90;;;;;;4828389;29;20130;-82
2021/12/28 04:24:30;;;;;;;18.65;15.10;;;6.00;99.90;;;;;;4843449;29;20087;-82
2021/12/28 04:26:55;;;;;;;18.65;14.40;;;5.80;99.90;;;;;;4825384;29;20073;-82
2021/12/28 04:29:21;;;;;;;21.30;14.80;;;5.90;99.90;;;;;;4842208;29;20113;-82
2021/12/28 04:31:47;;;;;;;16.90;12.73;;;5.90;99.90;;;;;;4814610;29;20053;-82
2021/12/28 04:34:13;;;;;;;18.67;14.02;;;6.00;99.90;;;;;;4860108;29;20097;-82
2021/12/28 04:36:38;;;;;;;18.70;14.05;;;6.00;99.90;;;;;;4834764;29;20049;-82
2021/12/28 04:39:06;;;;;;;19.35;14.23;;;6.00;99.90;;;;;;4843266;29;20049;-82
2021/12/28 04:41:34;;;;;;;21.40;15.55;;;5.90;99.90;;;;;;4827719;29;20124;-82
2021/12/28 04:44:01;;;;;;;21.50;16.50;;;5.90;99.90;;;;;;4843404;29;20057;-82
2021/12/28 04:46:31;;;;;;;19.25;13.70;;;5.90;99.90;;;;;;4829638;29;20103;-82
2021/12/28 04:48:57;;;;;;;24.42;17.13;;;6.00;99.90;;;;;;4824175;29;20045;-82
2021/12/28 04:51:23;;;;;;;24.50;16.13;;;6.00;99.90;;;;;;4835811;29;20049;-82
2021/12/28 04:53:52;;;;;;;21.15;15.13;;;5.90;99.90;;;;;;4847109;29;20101;-82
2021/12/28 04:56:18;;;;;;;21.75;15.68;;;6.10;99.90;;;;;;4847221;29;20046;-82
2021/12/28 04:58:44;;;;;;;19.30;14.15;;;5.90;99.90;;;;;;4862020;29;20420;-82
2021/12/28 05:01:09;;;;;;;21.95;15.85;;;6.10;99.90;;;;;;4844327;29;20088;-83
2021/12/28 05:03:35;;;;;;;26.38;17.10;;;6.00;99.90;;;;;;4845494;29;20363;-83
2021/12/28 05:06:01;;;;;;;23.70;16.00;;;6.10;99.90;;;;;;4831018;29;20053;-82
2021/12/28 05:08:27;;;;;;;25.58;17.20;;;6.00;99.90;;;;;;4816073;29;20057;-82
2021/12/28 05:10:53;;;;;;;25.02;16.63;;;6.00;99.90;;;;;;4831088;29;20128;-82
2021/12/28 05:13:20;;;;;;;24.77;16.65;;;6.10;99.90;;;;;;4842663;29;20488;-79
2021/12/28 05:15:46;;;;;;;;;;;6.10;99.90;;;;;;4861684;29;20395;-79
2021/12/28 05:18:13;;;;;;;29.33;19.23;;;5.90;99.90;;;;;;4829589;29;19935;-79
2021/12/28 05:20:39;;;;;;;28.35;19.42;;;6.00;99.90;;;;;;4839508;29;20142;-78
2021/12/28 05:23:05;;;;;;;;;;;5.90;99.90;;;;;;4843974;29;20094;-79
2021/12/28 05:25:33;;;;;;;27.67;17.90;;;5.90;99.90;;;;;;4821991;29;20267;-79
2021/12/28 05:28:00;;;;;;;25.70;17.77;;;5.90;99.90;;;;;;4861805;29;20049;-79
2021/12/28 05:30:25;;;;;;;;;;;5.90;99.90;;;;;;4815589;29;20128;-79
2021/12/28 05:32:51;;;;;;;27.23;18.67;;;5.70;99.90;;;;;;4842260;29;20011;-79
2021/12/28 05:35:17;;;;;;;27.27;18.38;;;5.70;99.90;;;;;;4842114;29;20492;-79
2021/12/28 05:37:43;;;;;;;23.90;16.52;;;5.70;99.90;;;;;;4843165;29;20057;-79
2021/12/28 05:40:11;;;;;;;27.00;18.90;;;5.80;99.90;;;;;;4841242;29;20037;-79
2021/12/28 05:42:36;;;;;;;25.63;18.55;;;5.70;99.90;;;;;;4831022;29;20037;-79
2021/12/28 05:45:03;;;;;;;27.83;18.83;;;5.60;99.90;;;;;;4827933;29;20050;-78
2021/12/28 05:47:29;;;;;;;27.15;20.02;;;5.60;99.90;;;;;;4844813;29;20049;-79
2021/12/28 05:49:55;;;;;;;24.27;17.88;;;5.50;99.90;;;;;;4842290;29;20142;-79
2021/12/28 05:52:21;;;;;;;24.02;17.45;;;5.40;99.90;;;;;;4819823;29;20049;-79
2021/12/28 05:54:46;;;;;;;27.00;19.30;;;5.60;99.90;;;;;;4844816;29;20122;-79
2021/12/28 05:57:12;;;;;;;22.20;16.25;;;5.40;99.90;;;;;;4850713;29;20060;-79
2021/12/28 05:59:38;;;;;;;28.90;18.10;;;5.40;99.90;;;;;;4829637;29;20484;-79
2021/12/28 06:02:05;;;;;;;25.92;18.25;;;5.40;99.90;;;;;;4834310;29;20448;-79
2021/12/28 06:04:30;;;;;;;29.17;19.45;;;5.40;99.90;;;;;;4827086;29;20045;-79
2021/12/28 06:06:56;;;;;;;22.80;16.77;;;5.50;99.90;;;;;;4845246;29;20042;-81
2021/12/28 06:09:22;;;;;;;26.15;18.20;;;5.50;99.90;;;;;;4845334;29;20128;-82
2021/12/28 06:11:48;;;;;;;20.65;14.88;;;5.50;99.90;;;;;;4845288;29;20049;-83
2021/12/28 06:14:14;;;;;;;23.63;15.88;;;5.50;99.90;;;;;;4814127;29;20057;-84
2021/12/28 06:16:40;;;;;;;24.33;16.80;;;5.40;99.90;;;;;;4845034;29;20559;-83
2021/12/28 06:19:06;;;;;;;24.65;16.10;;;5.40;99.90;;;;;;4842593;29;20133;-81
2021/12/28 06:21:33;;;;;;;24.73;16.75;;;5.40;99.90;;;;;;4829351;29;20053;-82
2021/12/28 06:24:00;;;;;;;22.50;15.38;;;5.50;99.90;;;;;;4861507;29;20544;-83
2021/12/28 06:26:29;;;;;;;24.05;17.70;;;5.30;99.90;;;;;;4826435;29;20041;-82
2021/12/28 06:28:55;;;;;;;23.52;17.42;;;5.50;99.90;;;;;;4842347;29;20046;-83
2021/12/28 06:31:21;;;;;;;24.70;16.85;;;5.50;99.90;;;;;;4829723;29;20061;-82
2021/12/28 06:33:47;;;;;;;25.92;17.70;;;5.50;99.90;;;;;;4828673;29;20041;-83
2021/12/28 06:36:13;;;;;;;24.50;17.08;;;5.30;99.90;;;;;;4829341;29;20057;-83
2021/12/28 06:38:39;;;;;;;24.73;16.73;;;5.50;99.90;;;;;;4841838;29;20053;-83
2021/12/28 06:41:06;;;;;;;20.65;14.95;;;5.30;99.90;;;;;;4828453;29;20368;-82
2021/12/28 06:43:32;;;;;;;21.92;15.57;;;5.30;99.90;;;;;;4844391;29;20046;-82
2021/12/28 06:45:58;;;;;;;20.92;14.88;;;5.50;99.90;;;;;;4829566;29;20044;-83
2021/12/28 06:48:24;;;;;;;25.60;17.17;;;5.40;99.90;;;;;;4828641;29;20420;-83
2021/12/28 06:50:52;;;;;;;24.92;16.90;;;5.40;99.90;;;;;;4856531;29;20155;-83
2021/12/28 06:53:18;;;;;;;23.05;15.25;;;5.40;99.90;;;;;;4824714;29;20049;-83
2021/12/28 06:55:44;;;;;;;21.85;15.02;;;5.50;99.90;;;;;;4822156;29;20046;-83
2021/12/28 06:58:09;;;;;;;19.88;13.35;;;5.40;99.90;;;;;;4817812;29;20461;-82
2021/12/28 07:00:37;;;;;;;24.90;15.60;;;5.30;99.90;;;;;;4834481;29;20037;-82
2021/12/28 07:03:04;;;;;;;24.60;16.75;;;5.50;99.90;;;;;;4814522;29;20252;-82
2021/12/28 07:05:30;;;;;;;23.33;15.60;;;5.40;99.90;;;;;;4817711;29;20049;-81
2021/12/28 07:07:55;;;;;;;21.15;14.43;;;5.30;99.90;;;;;;4815872;29;20375;-82
2021/12/28 07:10:22;;;;;;;22.48;15.82;;;5.30;99.90;;;;;;4830870;29;20037;-84
2021/12/28 07:12:50;;;;;;;21.70;14.70;;;5.30;99.90;;;;;;4824830;29;20106;-82
2021/12/28 07:15:18;;;;;;;22.60;14.93;;;5.40;99.90;;;;;;4818316;29;20041;-82
2021/12/28 07:17:44;;;;;;;21.73;14.73;;;5.20;99.90;;;;;;4839134;29;20097;-82
2021/12/28 07:20:11;;;;;;;24.83;16.05;;;5.30;99.90;;;;;;4812636;29;20452;-82
2021/12/28 07:22:37;;;;;;;23.42;15.50;;;5.30;99.90;;;;;;4836032;29;20041;-82
2021/12/28 07:25:04;;;;;;;23.58;15.90;;;5.20;99.90;;;;;;4817119;29;20042;-83
2021/12/28 07:27:30;;;;;;;25.00;15.43;;;5.20;99.90;;;;;;4835173;29;20081;-82
2021/12/28 07:29:56;;;;;;;24.20;15.15;;;5.10;99.90;;;;;;4820874;29;20048;-80
2021/12/28 07:32:21;;;;;;;21.80;13.37;;;5.20;99.90;;;;;;4835139;29;20136;-80
2021/12/28 07:34:47;;;;;;;24.23;14.95;;;5.30;99.90;;;;;;4833677;29;20294;-80
2021/12/28 07:37:14;;;;;;;22.23;14.80;;;5.20;99.90;;;;;;4836509;29;20078;-80
2021/12/28 07:39:39;;;;;;;21.38;14.02;;;5.30;99.90;;;;;;4832569;29;20049;-83
2021/12/28 07:42:05;;;;;;;23.13;14.68;;;5.40;99.90;;;;;;4806157;29;20045;-82
2021/12/28 07:44:31;;;;;;;21.65;14.68;;;5.50;99.90;;;;;;4849207;29;20121;-80
2021/12/28 07:46:57;;;;;;;20.10;12.68;;;5.50;99.90;;;;;;4859900;29;20050;-82
2021/12/28 07:49:22;;;;;;;21.80;14.88;;;5.50;99.90;;;;;;4828090;29;20124;-82
2021/12/28 07:51:49;;;;;;;23.98;14.75;;;5.60;99.90;;;;;;4849482;29;20061;-80
2021/12/28 07:54:15;;;;;;;21.17;13.70;;;5.40;99.90;;;;;;4851959;29;20456;-83
2021/12/28 07:56:40;;;;;;;19.95;13.35;;;5.50;99.90;;;;;;4810685;29;20054;-82
2021/12/28 07:59:07;;;;;;;20.42;13.55;;;5.40;99.90;;;;;;4827883;29;20132;-83
2021/12/28 08:01:34;;;;;;;21.83;13.95;;;5.50;99.90;;;;;;4827530;29;20061;-82
2021/12/28 08:04:00;;;;;;;22.58;13.98;;;5.40;99.90;;;;;;4824415;29;20041;-82
2021/12/28 08:06:25;;;;;;;19.83;13.38;;;5.50;99.90;;;;;;4812568;29;20033;-82
2021/12/28 08:08:51;;;;;;;21.33;13.15;;;5.50;99.90;;;;;;4827966;29;20048;-82
2021/12/28 08:11:17;;;;;;;19.20;12.90;;;5.70;99.90;;;;;;4837657;29;20066;-82
2021/12/28 08:13:42;;;;;;;22.60;12.75;;;5.50;99.90;;;;;;4844718;29;20412;-82
2021/12/28 08:16:08;;;;;;;18.52;12.88;;;5.50;99.90;;;;;;4837705;29;20100;-82
2021/12/28 08:18:34;;;;;;;16.88;11.65;;;5.60;99.90;;;;;;4846390;29;20484;-82
2021/12/28 08:21:00;;;;;;;18.38;11.52;;;5.60;99.90;;;;;;4824994;29;20054;-82
2021/12/28 08:23:25;;;;;;;14.07;10.80;;;5.50;99.90;;;;;;4842358;29;20126;-82
2021/12/28 08:25:51;;;;;;;18.10;11.07;;;5.60;99.90;;;;;;4813350;29;20077;-82
2021/12/28 08:28:17;;;;;;;19.00;11.60;;;5.60;99.90;;;;;;4799443;29;20472;-80
2021/12/28 08:30:44;;;;;;;18.38;11.52;;;5.40;99.90;;;;;;4845515;29;20096;-81
2021/12/28 08:33:10;;;;;;;20.40;10.90;;;5.50;99.90;;;;;;4829997;29;20038;-74
2021/12/28 08:35:39;;;;;;;16.77;10.52;;;5.50;99.90;;;;;;4839502;29;20041;-79
2021/12/28 08:38:06;;;;;;;20.02;11.23;;;5.70;99.90;;;;;;4830767;29;20050;-80
2021/12/28 08:40:32;;;;;;;14.90;9.80;;;5.70;99.90;;;;;;4845869;29;20440;-80
2021/12/28 08:42:58;;;;;;;17.52;10.38;;;5.60;99.90;;;;;;4830801;29;20034;-80
2021/12/28 08:45:24;;;;;;;16.35;10.07;;;5.80;99.90;;;;;;4839584;29;20045;-80
2021/12/28 08:47:51;;;;;;;17.33;10.25;;;5.80;99.90;;;;;;4841290;29;20038;-80
2021/12/28 08:50:19;;;;;;;15.82;10.05;;;5.80;99.90;;;;;;4826002;29;20499;-80
2021/12/28 08:52:45;;;;;;;14.65;9.95;;;5.90;99.90;;;;;;4860399;29;20075;-81
2021/12/28 08:55:11;;;;;;;14.73;9.25;;;5.90;99.90;;;;;;4826902;29;20069;-81
2021/12/28 08:57:37;;;;;;;14.65;9.18;;;5.80;99.90;;;;;;4825666;29;20120;-81
2021/12/28 09:00:09;;;;;;;17.95;9.50;;;6.00;99.90;;;;;;4829737;29;20531;-80
2021/12/28 09:02:34;;;;;;;13.57;7.72;;;6.00;99.90;;;;;;4843142;29;20049;-81
2021/12/28 09:05:00;;;;;;;18.20;8.98;;;6.10;99.90;;;;;;4840511;29;20492;-81
2021/12/28 09:07:26;;;;;;;14.85;9.13;;;6.20;99.90;;;;;;4841866;29;20056;-77
2021/12/28 09:09:52;;;;;;;19.20;8.90;;;6.20;99.90;;;;;;4841849;29;20046;-77
2021/12/28 09:12:18;;;;;;;14.60;7.53;;;6.30;99.90;;;;;;4821630;29;20129;-78
2021/12/28 09:14:43;;;;;;;16.50;8.63;;;6.40;99.90;;;;;;4846839;29;20046;-77
2021/12/28 09:17:09;;;;;;;15.20;7.57;;;6.50;99.90;;;;;;4841285;29;20078;-78
2021/12/28 09:19:36;;;;;;;11.68;6.50;;;6.50;99.90;;;;;;4838100;29;20065;-78
2021/12/28 09:22:02;;;;;;;;;;;6.40;99.90;;;;;;4855239;29;20701;-78
2021/12/28 09:24:27;;;;;;;14.93;6.90;;;6.60;99.90;;;;;;4825206;29;19976;-78
2021/12/28 09:26:53;;;;;;;16.55;7.57;;;6.60;99.90;;;;;;4852372;29;20042;-77
2021/12/28 09:29:19;;;;;;;14.70;6.97;;;6.50;99.90;;;;;;4841319;29;20041;-75
2021/12/28 09:31:45;;;;;;;16.35;7.72;;;6.60;99.90;;;;;;4840012;29;20052;-80
2021/12/28 09:34:11;;;;;;;21.05;7.35;;;6.70;99.90;;;;;;4829045;29;20050;-81
2021/12/28 09:36:40;;;;;;;18.15;6.95;;;6.60;99.90;;;;;;4825100;29;20041;-79
2021/12/28 09:39:06;;;;;;;13.43;6.40;;;6.80;99.90;;;;;;4856441;29;20507;-79
2021/12/28 09:41:32;;;;;;;14.93;5.95;;;6.80;99.90;;;;;;4850496;29;20534;-79
2021/12/28 09:43:58;;;;;;;11.32;5.40;;;6.90;99.90;;;;;;4856592;29;20041;-81
2021/12/28 09:46:24;;;;;;;13.35;5.90;;;6.90;99.90;;;;;;4836436;29;20109;-81
2021/12/28 09:48:49;;;;;;;10.90;5.93;;;6.90;99.90;;;;;;4817087;29;20135;-81
2021/12/28 09:51:16;;;;;;;9.13;5.07;;;6.90;99.90;;;;;;4822714;29;20469;-79
2021/12/28 09:53:43;;;;;;;10.40;5.55;;;7.00;99.90;;;;;;4830333;29;20048;-80
2021/12/28 09:56:09;;;;;;;16.65;6.38;;;7.00;99.90;;;;;;4852339;29;20128;-79
2021/12/28 09:58:39;;;;;;;12.30;5.68;;;7.00;99.90;;;;;;4821608;29;20052;-79
2021/12/28 10:01:07;;;;;;;11.55;5.93;;;7.10;99.90;;;;;;4818519;29;20053;-79
2021/12/28 10:03:33;;;;;;;11.80;5.28;;;7.00;99.90;;;;;;4822346;29;20128;-79
2021/12/28 10:05:58;;;;;;;11.38;5.50;;;7.20;99.90;;;;;;4839366;29;20101;-79
2021/12/28 10:08:26;;;;;;;14.30;5.60;;;7.10;99.90;;;;;;4857980;29;20049;-80
2021/12/28 10:10:56;;;;;;;10.07;5.20;;;7.20;99.90;;;;;;4843091;29;20488;-79
2021/12/28 10:13:26;;;;;;;9.98;5.15;;;7.10;99.90;;;;;;4839069;29;20041;-80
2021/12/28 10:15:53;;;;;;;12.30;4.88;;;7.20;99.90;;;;;;4859691;29;20081;-79
2021/12/28 10:18:20;;;;;;;14.27;4.90;;;7.10;99.90;;;;;;4863842;29;20145;-79
2021/12/28 10:20:47;;;;;;;;;;;7.10;99.90;;;;;;4837757;29;20061;-79
2021/12/28 10:23:20;;;;;;;13.93;5.30;;;7.10;99.90;;;;;;4826516;29;20014;-80
2021/12/28 10:25:49;;;;;;;17.30;5.15;;;7.20;99.90;;;;;;4860505;29;20468;-80
2021/12/28 10:28:19;;;;;;;12.77;5.05;;;7.10;99.90;;;;;;4843754;29;20116;-80
2021/12/28 10:30:54;;;;;;;9.75;4.72;;;7.20;99.90;;;;;;4828215;29;20062;-78
2021/12/28 10:33:22;;;;;;;12.68;5.43;;;7.30;99.90;;;;;;4858688;29;20448;-79
2021/12/28 10:36:00;;;;;;;10.45;4.82;;;7.30;99.90;;;;;;4828929;29;20049;-79
2021/12/28 10:38:29;;;;;;;15.18;5.30;;;7.30;99.90;;;;;;4836767;29;20053;-80
2021/12/28 10:41:19;;;;;;;11.93;4.95;;;7.30;99.90;;;;;;4839194;29;20053;-79
2021/12/28 10:43:49;;;;;;;12.85;4.80;;;7.40;99.90;;;;;;4835739;29;20096;-80
2021/12/28 10:46:21;;;;;;;10.15;4.50;;;7.40;99.90;;;;;;4838632;29;20052;-81
2021/12/28 10:48:51;;;;;;;11.35;4.50;;;7.20;99.90;;;;;;4822990;29;20407;-80
2021/12/28 10:51:28;;;;;;;11.38;4.70;;;7.30;99.90;;;;;;4835604;29;20045;-80
2021/12/28 10:56:32;;;;;;;9.38;4.47;;;7.30;99.90;;;;;;4857821;29;20109;-79
2021/12/28 10:58:58;;;;;;;10.95;4.82;;;7.10;99.90;;;;;;4843077;29;20048;-79
2021/12/28 11:01:25;;;;;;;;;;;7.10;99.90;;;;;;4835364;29;20077;-79
2021/12/28 11:03:53;;;;;;;10.50;4.80;;;7.20;99.90;;;;;;4836853;29;20290;-79
2021/12/28 11:06:21;;;;;;;15.45;4.97;;;7.10;99.90;;;;;;4856790;29;20033;-80
2021/12/28 11:08:50;;;;;;;13.50;5.35;;;7.10;99.90;;;;;;4835958;29;21258;-79
2021/12/28 11:11:19;;;;;;;9.57;5.30;;;7.10;99.90;;;;;;4855530;29;20054;-80
2021/12/28 11:13:46;;;;;;;10.38;4.88;;;7.20;99.90;;;;;;4836552;29;20053;-79
2021/12/28 11:16:13;;;;;;;12.57;5.32;;;7.10;99.90;;;;;;4845738;29;20042;-81
2021/12/28 11:18:44;;;;;;;11.07;4.90;;;7.00;99.90;;;;;;4825413;29;20053;-80
2021/12/28 11:21:20;;;;;;;11.05;5.30;;;7.20;99.90;;;;;;4840990;29;20045;-80
2021/12/28 11:23:49;;;;;;;11.80;5.03;;;7.00;99.90;;;;;;4842832;29;20461;-80
2021/12/28 11:26:20;;;;;;;8.77;4.30;;;7.30;99.90;;;;;;4827302;29;20056;-80
2021/12/28 11:29:15;;;;;;;12.07;5.10;;;7.10;99.90;;;;;;4842848;29;20042;-81
2021/12/28 11:31:53;;;;;;;10.18;4.80;;;7.20;99.90;;;;;;4827128;29;20147;-80
2021/12/28 11:34:24;;;;;;;8.60;4.72;;;7.20;99.90;;;;;;4842877;29;20082;-79
2021/12/28 11:36:59;;;;;;;8.68;4.25;;;7.10;99.90;;;;;;4842613;29;20045;-79
2021/12/28 11:39:28;;;;;;;8.55;4.75;;;7.10;99.90;;;;;;4836134;29;20046;-81
2021/12/28 11:41:56;;;;;;;12.80;5.00;;;7.20;99.90;;;;;;4858733;29;20468;-81
2021/12/28 11:44:23;;;;;;;9.48;4.47;;;7.40;99.90;;;;;;4843683;29;20117;-84
2021/12/28 11:46:51;;;;;;;8.75;4.70;;;7.10;99.90;;;;;;4825167;29;20096;-81
2021/12/28 11:49:17;;;;;;;7.03;3.83;;;7.40;99.90;;;;;;4839607;29;20041;-80
2021/12/28 11:51:45;;;;;;;9.02;5.00;;;7.40;99.90;;;;;;4842323;29;20076;-80
2021/12/28 11:54:14;;;;;;;9.55;5.07;;;7.30;99.90;;;;;;4838482;29;20124;-79
2021/12/28 11:56:46;;;;;;;7.15;4.43;;;7.20;99.90;;;;;;4840764;29;20059;-81
2021/12/28 11:59:23;;;;;;;8.05;4.75;;;7.40;99.90;;;;;;4822458;29;20145;-80
2021/12/28 12:01:52;;;;;;;8.80;5.30;;;7.30;99.90;;;;;;4832765;29;20058;-81
2021/12/28 12:04:30;;;;;;;8.00;4.70;;;7.30;99.90;;;;;;4842909;29;20505;-81
2021/12/28 12:07:04;;;;;;;8.18;5.32;;;7.20;99.90;;;;;;4836915;29;20056;-83
2021/12/28 12:09:31;;;;;;;9.70;6.20;;;7.50;99.90;;;;;;4825406;29;20046;-82
2021/12/28 12:12:35;;;;;;;7.80;5.32;;;7.60;99.90;;;;;;4826375;29;20134;-82
2021/12/28 12:15:03;;;;;;;7.18;5.32;;;7.30;99.90;;;;;;4833104;29;20049;-82
2021/12/28 12:17:34;;;;;;;7.07;4.78;;;7.50;99.90;;;;;;4814045;29;20062;-82
2021/12/28 12:20:30;;;;;;;8.73;5.20;;;7.40;99.90;;;;;;4841419;29;20422;-83
2021/12/28 12:23:07;;;;;;;8.98;5.20;;;7.70;99.90;;;;;;4837083;29;20069;-84
2021/12/28 12:25:42;;;;;;;6.57;5.03;;;7.50;99.90;;;;;;4838871;29;20088;-82
2021/12/28 12:28:09;;;;;;;8.43;5.75;;;7.50;99.90;;;;;;4819083;29;20113;-82
2021/12/28 12:30:49;;;;;;;5.78;4.72;;;7.60;99.90;;;;;;4820119;29;20046;-82
2021/12/28 12:33:16;;;;;;;5.63;4.82;;;7.60;99.90;;;;;;4851730;29;20880;-82
2021/12/28 12:35:43;;;;;;;6.72;4.70;;;7.50;99.90;;;;;;4841493;29;20046;-82
2021/12/28 12:38:12;;;;;;;;;;;7.70;99.90;;;;;;4837675;29;20053;-82
2021/12/28 12:41:32;;;;;;;7.50;4.90;;;7.50;99.90;;;;;;4825110;29;19928;-82
2021/12/28 12:43:58;;;;;;;4.70;4.10;;;7.80;99.90;;;;;;4754240;30;20086;-82
2021/12/28 12:46:29;;;;;;;7.15;4.90;;;7.80;99.90;;;;;;4824635;29;20050;-82
2021/12/28 12:48:55;;;;;;;6.57;4.32;;;7.80;99.90;;;;;;4821841;29;20045;-82
2021/12/28 12:51:20;;;;;;;7.55;4.40;;;7.90;99.90;;;;;;4837507;29;20101;-82
2021/12/28 12:53:50;;;;;;;6.30;4.63;;;7.60;99.90;;;;;;4840117;29;20404;-83